Time;durP1;ratioP1;P1;durP2;ratioP2;P2;SDS_P1;SDS_P2;PMS_P1;PMS_P2;Temp;Humidity;BMP_temperature;BMP_pressure;BME280_temperature;BME280_humidity;BME280_pressure;Samples;Min_cycle;Max_cycle;Signal;HPM_P1;HPM_P2
2022/03/22 00:01:40;;;;;;;40.35;23.70;;;;;;;7.58;95.73;103041.91;5094987;28;20044;-68
2022/03/22 00:04:10;;;;;;;39.15;23.65;;;;;;;7.57;95.58;103034.97;5095166;28;20056;-67
2022/03/22 00:06:39;;;;;;;42.58;23.67;;;;;;;7.58;95.39;103039.31;5094946;28;20052;-67
2022/03/22 00:09:08;;;;;;;42.78;24.42;;;;;;;7.54;96.53;103046.38;5094570;28;20070;-67
2022/03/22 00:11:36;;;;;;;42.25;25.70;;;;;;;7.55;96.60;103042.88;5094762;28;20093;-66
2022/03/22 00:14:06;;;;;;;48.95;25.08;;;;;;;7.57;96.63;103037.59;5094333;28;20051;-66
2022/03/22 00:16:34;;;;;;;45.00;24.92;;;;;;;7.57;96.01;103042.84;5094329;28;20047;-67
2022/03/22 00:19:24;;;;;;;40.50;24.05;;;;;;;7.53;95.62;103039.41;5094376;28;20037;-66
2022/03/22 00:21:52;;;;;;;41.75;25.35;;;;;;;7.52;95.22;103035.03;5094658;28;20071;-66
2022/03/22 00:24:20;;;;;;;43.25;25.20;;;;;;;7.53;95.98;103035.94;5094455;28;20139;-66
2022/03/22 00:26:49;;;;;;;42.42;24.17;;;;;;;7.51;95.99;103032.44;5094641;28;20044;-66
2022/03/22 00:29:17;;;;;;;43.88;24.58;;;;;;;7.46;95.17;103035.16;5094032;28;20076;-67
2022/03/22 00:31:46;;;;;;;43.50;25.27;;;;;;;7.44;95.91;103032.56;5094533;28;21125;-66
2022/03/22 00:34:14;;;;;;;43.78;24.05;;;;;;;7.41;96.50;103037.00;5094005;28;20048;-66
2022/03/22 00:36:45;;;;;;;39.03;24.55;;;;;;;7.42;96.06;103033.50;5094135;28;20079;-66
2022/03/22 00:39:13;;;;;;;43.88;25.42;;;;;;;7.39;96.76;103039.63;5094275;28;20051;-66
2022/03/22 00:41:41;;;;;;;44.22;25.63;;;;;;;7.34;96.34;103036.22;5094256;28;20059;-66
2022/03/22 00:44:10;;;;;;;39.83;24.63;;;;;;;7.32;96.22;103047.59;5094370;28;20158;-66
2022/03/22 00:46:39;;;;;;;42.95;24.83;;;;;;;7.27;96.29;103045.94;5094438;28;20552;-66
2022/03/22 00:49:08;;;;;;;41.20;23.17;;;;;;;7.20;96.77;103041.69;5094040;28;20588;-66
2022/03/22 00:51:37;;;;;;;39.85;23.55;;;;;;;7.16;97.18;103046.97;5094322;28;20457;-67
2022/03/22 00:54:08;;;;;;;42.55;23.35;;;;;;;7.13;97.27;103045.31;5094187;28;20062;-67
2022/03/22 00:56:38;;;;;;;41.97;23.63;;;;;;;7.06;97.16;103046.25;5093791;28;20723;-67
2022/03/22 01:01:51;;;;;;;42.55;23.00;;;;;;;7.00;97.88;103054.22;5093277;28;20522;-67
2022/03/22 01:04:20;;;;;;;43.78;22.48;;;;;;;6.97;96.40;103055.13;5092346;28;20051;-66
2022/03/22 01:06:48;;;;;;;44.88;25.25;;;;;;;6.97;96.68;103054.25;5093925;28;20044;-66
2022/03/22 01:09:18;;;;;;;41.83;23.40;;;;;;;6.91;97.07;103050.84;5093783;28;20048;-65
2022/03/22 01:11:47;;;;;;;40.25;22.60;;;;;;;6.84;96.78;103046.56;5093992;28;20048;-66
2022/03/22 01:14:15;;;;;;;39.40;22.13;;;;;;;6.81;96.62;103051.84;5093822;28;20538;-65
2022/03/22 01:16:43;;;;;;;37.47;22.77;;;;;;;6.79;96.73;103051.03;5093666;28;20054;-66
2022/03/22 01:19:11;;;;;;;39.38;23.55;;;;;;;6.68;99.22;103047.69;5093407;28;20055;-66
2022/03/22 01:21:40;;;;;;;39.17;24.00;;;;;;;6.67;99.70;103046.81;5093363;28;20047;-67
2022/03/22 01:24:08;;;;;;;48.47;25.90;;;;;;;6.65;99.66;103048.56;5093360;28;20043;-66
2022/03/22 01:26:38;;;;;;;36.83;22.67;;;;;;;6.57;99.99;103043.47;5093484;28;20047;-66
2022/03/22 01:29:07;;;;;;;38.58;23.83;;;;;;;6.55;98.83;103044.38;5093236;28;20036;-66
2022/03/22 01:31:35;;;;;;;41.67;24.25;;;;;;;6.52;99.52;103054.88;5093146;28;20511;-66
2022/03/22 01:34:04;;;;;;;35.08;22.85;;;;;;;6.55;98.71;103045.22;5093275;28;20127;-66
2022/03/22 01:36:32;;;;;;;43.53;23.92;;;;;;;6.53;99.31;103049.63;5093357;28;20052;-66
2022/03/22 01:39:01;;;;;;;40.97;24.85;;;;;;;6.58;98.06;103046.94;5093165;28;20055;-68
2022/03/22 01:41:29;;;;;;;40.42;23.40;;;;;;;6.53;98.65;103053.97;5093324;28;20048;-67
2022/03/22 01:43:59;;;;;;;38.17;23.63;;;;;;;6.52;98.12;103049.66;5092779;28;20507;-66
2022/03/22 01:46:27;;;;;;;39.05;22.90;;;;;;;6.43;97.99;103048.00;5093169;28;20153;-66
2022/03/22 01:48:56;;;;;;;39.80;22.33;;;;;;;6.39;98.43;103044.56;5092502;28;20044;-66
2022/03/22 01:51:25;;;;;;;40.55;22.35;;;;;;;6.33;98.70;103055.09;5092678;28;20054;-66
2022/03/22 01:53:53;;;;;;;41.30;22.75;;;;;;;6.34;99.11;103045.50;5092800;28;20036;-66
2022/03/22 01:56:22;;;;;;;43.10;23.60;;;;;;;6.35;98.76;103047.22;5092702;28;20627;-66
2022/03/22 01:58:50;;;;;;;40.63;22.70;;;;;;;6.30;99.68;103046.41;5092965;28;20134;-66
2022/03/22 02:06:55;;;;;;;39.58;23.27;;;;;;;6.19;100.00;103039.59;5092744;28;20048;-66
2022/03/22 02:09:23;;;;;;;40.55;23.95;;;;;;;6.20;99.58;103043.06;5092487;28;20036;-66
2022/03/22 02:11:51;;;;;;;40.22;23.45;;;;;;;6.18;99.56;103040.47;5092495;28;20047;-66
2022/03/22 02:14:19;;;;;;;38.13;23.40;;;;;;;6.15;99.86;103037.00;5092404;28;20044;-66
2022/03/22 02:16:49;;;;;;;34.92;22.40;;;;;;;6.13;100.00;103042.25;5092421;28;20055;-65
2022/03/22 02:19:18;;;;;;;38.97;23.00;;;;;;;6.13;100.00;103036.19;5092312;28;20059;-66
2022/03/22 02:21:51;;;;;;;41.40;23.00;;;;;;;6.05;100.00;103033.63;5091229;28;20494;-66
2022/03/22 02:24:21;;;;;;;41.80;23.70;;;;;;;5.94;100.00;103038.94;5092363;28;20059;-66
2022/03/22 02:26:49;;;;;;;39.40;22.60;;;;;;;6.00;100.00;103035.44;5092222;28;20502;-66
2022/03/22 02:29:18;;;;;;;39.33;23.10;;;;;;;5.98;100.00;103032.84;5091495;28;20050;-66
2022/03/22 02:31:46;;;;;;;40.35;22.92;;;;;;;5.93;100.00;103029.38;5091867;28;20089;-66
2022/03/22 02:34:14;;;;;;;43.40;23.35;;;;;;;5.89;100.00;103027.69;5092313;28;20044;-66
2022/03/22 02:36:44;;;;;;;36.95;21.88;;;;;;;5.83;100.00;103033.84;5092252;28;20056;-66
2022/03/22 02:39:13;;;;;;;37.53;21.40;;;;;;;5.78;100.00;103027.81;5092097;28;20048;-65
2022/03/22 02:41:45;;;;;;;36.50;21.45;;;;;;;5.75;100.00;103027.81;5091988;28;20105;-66
2022/03/22 02:44:13;;;;;;;38.63;20.95;;;;;;;5.75;100.00;103025.22;5092380;28;20487;-65
2022/03/22 02:46:41;;;;;;;39.70;23.02;;;;;;;5.69;100.00;103030.50;5092436;28;20421;-65
2022/03/22 02:49:10;;;;;;;35.63;22.55;;;;;;;5.75;100.00;103030.44;5092112;28;20059;-65
2022/03/22 02:51:38;;;;;;;38.13;21.00;;;;;;;5.80;100.00;103036.47;5091949;28;20109;-65
2022/03/22 02:54:06;;;;;;;38.45;22.58;;;;;;;5.68;100.00;103034.00;5092060;28;20093;-66
2022/03/22 02:56:35;;;;;;;39.95;21.83;;;;;;;5.69;100.00;103035.72;5094614;28;20499;-66
2022/03/22 02:59:04;;;;;;;38.72;21.42;;;;;;;5.71;100.00;103033.97;5096412;28;20388;-66
2022/03/22 03:01:34;;;;;;;36.28;22.00;;;;;;;5.65;100.00;103034.03;5096089;28;20039;-66
2022/03/22 03:04:02;;;;;;;39.20;21.83;;;;;;;5.57;100.00;103034.94;5096226;28;20441;-66
2022/03/22 03:06:30;;;;;;;38.78;22.77;;;;;;;5.49;100.00;103038.53;5095949;28;20134;-66
2022/03/22 03:08:59;;;;;;;35.97;21.55;;;;;;;5.50;100.00;103041.13;5094856;28;20109;-65
2022/03/22 03:11:28;;;;;;;39.90;22.88;;;;;;;5.45;100.00;103037.66;5095716;28;20052;-65
2022/03/22 03:16:44;;;;;;;39.22;21.73;;;;;;;5.38;100.00;103047.28;5094233;28;20149;-66
2022/03/22 03:19:13;;;;;;;39.63;21.27;;;;;;;5.35;100.00;103042.09;5095627;28;20086;-66
2022/03/22 03:21:41;;;;;;;39.05;22.83;;;;;;;5.34;100.00;103044.72;5095388;28;20047;-66
2022/03/22 03:24:09;;;;;;;36.00;22.50;;;;;;;5.31;100.00;103049.97;5095697;28;20036;-66
2022/03/22 03:26:38;;;;;;;38.72;21.95;;;;;;;5.30;100.00;103048.25;5095707;28;20048;-65
2022/03/22 03:29:07;;;;;;;37.15;20.52;;;;;;;5.33;100.00;103048.22;5095704;28;20143;-65
2022/03/22 03:31:36;;;;;;;35.75;20.17;;;;;;;5.32;100.00;103046.50;5095478;28;20055;-66
2022/03/22 03:34:06;;;;;;;38.55;21.08;;;;;;;5.36;100.00;103049.06;5095960;28;20063;-66
2022/03/22 03:36:34;;;;;;;35.92;21.13;;;;;;;5.34;100.00;103049.94;5095632;28;20062;-65
2022/03/22 03:39:03;;;;;;;33.13;19.98;;;;;;;5.33;100.00;103051.72;5095531;28;20059;-65
2022/03/22 03:47:07;;;;;;;34.60;19.70;;;;;;;5.27;100.00;103054.34;5095297;28;20066;-65
2022/03/22 03:49:38;;;;;;;37.30;19.63;;;;;;;5.23;100.00;103055.25;5095345;28;20050;-65
2022/03/22 03:52:08;;;;;;;38.20;20.98;;;;;;;5.16;100.00;103059.63;5095250;28;20450;-67
2022/03/22 03:54:37;;;;;;;36.35;20.92;;;;;;;5.11;100.00;103061.41;5094912;28;20127;-65
2022/03/22 03:57:06;;;;;;;34.92;20.35;;;;;;;5.07;100.00;103062.31;5094371;28;20097;-66
2022/03/22 03:59:35;;;;;;;36.10;19.48;;;;;;;5.07;100.00;103062.31;5094955;28;20040;-65
2022/03/22 04:02:06;;;;;;;39.90;20.13;;;;;;;5.08;100.00;103064.94;5094921;28;20059;-65
2022/03/22 04:04:36;;;;;;;35.20;20.77;;;;;;;5.08;100.00;103062.31;5095038;28;20044;-65
2022/03/22 04:07:05;;;;;;;35.22;21.13;;;;;;;5.08;100.00;103074.47;5094066;28;20058;-65
2022/03/22 04:09:35;;;;;;;35.67;21.10;;;;;;;5.03;100.00;103076.25;5094874;28;20056;-65
2022/03/22 04:12:05;;;;;;;38.70;20.67;;;;;;;5.03;100.00;103074.53;5094731;28;20090;-65
2022/03/22 04:14:33;;;;;;;33.25;20.25;;;;;;;5.04;100.00;103072.75;5094718;28;20052;-65
2022/03/22 04:17:02;;;;;;;33.67;19.75;;;;;;;5.04;100.00;103077.97;5094638;28;20115;-58
2022/03/22 04:19:31;;;;;;;28.85;18.77;;;;;;;4.98;100.00;103081.50;5093608;28;20391;-65
2022/03/22 04:22:02;;;;;;;33.78;19.17;;;;;;;4.90;100.00;103076.31;5094723;28;20498;-65
2022/03/22 04:24:30;;;;;;;34.63;19.73;;;;;;;4.91;100.00;103077.22;5094547;28;20131;-65
2022/03/22 04:32:41;;;;;;;35.03;20.05;;;;;;;4.86;100.00;103074.59;5094383;28;20036;-57
2022/03/22 04:32:45;;;;;;;34.08;19.52;;;;;;;4.85;100.00;103078.13;5094109;28;20344;-65
2022/03/22 04:35:18;;;;;;;34.03;20.17;;;;;;;4.86;100.00;103082.44;5094426;28;20435;-65
2022/03/22 04:37:50;;;;;;;34.72;19.65;;;;;;;4.76;100.00;103082.47;5094435;28;20094;-65
2022/03/22 04:40:19;;;;;;;32.70;18.80;;;;;;;4.75;100.00;103084.22;5094437;28;20036;-65
2022/03/22 04:42:48;;;;;;;33.47;18.88;;;;;;;4.76;100.00;103078.16;5094144;28;20040;-65
2022/03/22 04:45:16;;;;;;;32.63;18.98;;;;;;;4.71;100.00;103087.72;5093908;28;20048;-64
2022/03/22 04:47:46;;;;;;;30.17;18.20;;;;;;;4.75;100.00;103094.66;5094397;28;20425;-65
2022/03/22 04:50:16;;;;;;;33.88;18.20;;;;;;;4.70;100.00;103093.81;5094155;28;20051;-65
2022/03/22 04:58:34;;;;;;;29.95;17.95;;;;;;;4.60;100.00;103092.13;5093868;28;20571;-65
2022/03/22 05:01:04;;;;;;;32.80;18.75;;;;;;;4.47;100.00;103091.28;5094018;28;20059;-65
2022/03/22 05:03:32;;;;;;;32.33;17.85;;;;;;;4.49;100.00;103089.56;5093844;28;20048;-65
2022/03/22 05:08:46;;;;;;;32.65;18.75;;;;;;;4.54;100.00;103098.22;5093488;28;20120;-65
2022/03/22 05:11:16;;;;;;;35.65;19.27;;;;;;;4.42;100.00;103090.44;5093204;28;20167;-66
2022/03/22 05:13:44;;;;;;;32.95;18.58;;;;;;;4.44;100.00;103097.38;5093930;28;20048;-65
2022/03/22 05:16:12;;;;;;;33.70;19.98;;;;;;;4.42;100.00;103108.69;5093673;28;20036;-65
2022/03/22 05:18:41;;;;;;;33.35;18.77;;;;;;;4.44;100.00;103097.38;5092869;28;20623;-65
2022/03/22 05:21:10;;;;;;;33.10;18.70;;;;;;;4.40;100.00;103100.88;5093030;28;20043;-65
2022/03/22 05:23:40;;;;;;;29.35;17.85;;;;;;;4.43;100.00;103102.59;5093352;28;20534;-65
2022/03/22 05:26:08;;;;;;;31.85;18.10;;;;;;;4.42;100.00;103106.97;5093262;28;20052;-64
2022/03/22 05:28:38;;;;;;;32.30;18.88;;;;;;;4.40;100.00;103106.09;5093241;28;20433;-65
2022/03/22 05:31:09;;;;;;;31.45;18.65;;;;;;;4.43;100.00;103108.69;5092196;28;20105;-65
2022/03/22 05:33:38;;;;;;;34.00;18.80;;;;;;;4.37;100.00;103114.78;5093057;28;20505;-65
2022/03/22 05:36:08;;;;;;;32.22;19.63;;;;;;;4.36;100.00;103109.56;5093188;28;20036;-65
2022/03/22 05:38:36;;;;;;;33.00;17.83;;;;;;;4.37;100.00;103111.31;5093009;28;20052;-65
2022/03/22 05:41:06;;;;;;;32.40;19.08;;;;;;;4.47;100.00;103113.03;5093212;28;20047;-65
2022/03/22 05:43:34;;;;;;;32.83;18.30;;;;;;;4.48;100.00;103122.56;5092811;28;20047;-66
2022/03/22 05:46:04;;;;;;;32.08;17.80;;;;;;;4.47;100.00;103118.25;5092772;28;20044;-65
2022/03/22 05:48:33;;;;;;;32.05;18.70;;;;;;;4.49;100.00;103119.09;5092752;28;20101;-66
2022/03/22 05:51:02;;;;;;;33.25;18.25;;;;;;;4.51;100.00;103116.47;5092849;28;20044;-65
2022/03/22 05:53:30;;;;;;;34.17;18.10;;;;;;;4.53;100.00;103123.41;5092571;28;20040;-64
2022/03/22 05:55:58;;;;;;;36.63;20.65;;;;;;;4.55;100.00;103119.09;5092667;28;20439;-64
2022/03/22 05:58:27;;;;;;;34.47;18.65;;;;;;;4.56;100.00;103123.41;5092764;28;20044;-65
2022/03/22 06:00:55;;;;;;;32.90;19.70;;;;;;;4.60;100.00;103126.03;5092339;28;20085;-65
2022/03/22 06:03:25;;;;;;;31.83;18.48;;;;;;;4.60;100.00;103121.66;5092151;28;20044;-65
2022/03/22 06:05:53;;;;;;;34.58;19.73;;;;;;;4.60;100.00;103128.63;5092495;28;20101;-65
2022/03/22 06:08:22;;;;;;;37.53;19.08;;;;;;;4.63;100.00;103126.00;5092752;28;20044;-65
2022/03/22 06:10:50;;;;;;;35.83;19.60;;;;;;;4.63;100.00;103134.66;5092894;28;20072;-65
2022/03/22 06:13:18;;;;;;;36.83;19.95;;;;;;;4.68;100.00;103132.06;5092465;28;20032;-65
2022/03/22 06:15:52;;;;;;;38.25;20.40;;;;;;;4.71;100.00;103132.03;5092127;28;20506;-65
2022/03/22 06:18:21;;;;;;;36.10;19.25;;;;;;;4.77;100.00;103141.59;5092321;28;20433;-65
2022/03/22 06:20:50;;;;;;;35.38;19.63;;;;;;;4.81;100.00;103138.09;5092447;28;20486;-65
2022/03/22 06:23:19;;;;;;;32.63;19.13;;;;;;;4.84;100.00;103138.94;5092234;28;20044;-65
2022/03/22 06:25:47;;;;;;;34.08;20.42;;;;;;;4.88;100.00;103142.38;5092231;28;20051;-65
2022/03/22 06:28:18;;;;;;;33.78;19.08;;;;;;;4.94;100.00;103139.78;5092335;28;20437;-65
2022/03/22 06:30:47;;;;;;;35.60;20.65;;;;;;;5.05;100.00;103147.53;5091854;28;20043;-65
2022/03/22 06:33:17;;;;;;;35.75;20.30;;;;;;;5.08;100.00;103150.13;5092028;28;20386;-65
2022/03/22 06:35:47;;;;;;;34.65;20.55;;;;;;;5.17;100.00;103141.41;5092196;28;20054;-65
2022/03/22 06:38:18;;;;;;;31.15;19.60;;;;;;;5.26;100.00;103149.16;5091635;28;20556;-65
2022/03/22 06:40:49;;;;;;;32.58;19.35;;;;;;;5.34;100.00;103142.13;5092181;28;20046;-65
2022/03/22 06:43:19;;;;;;;36.20;20.52;;;;;;;5.44;100.00;103145.56;5091872;28;20123;-64
2022/03/22 06:45:48;;;;;;;38.92;21.30;;;;;;;5.51;100.00;103136.81;5092163;28;20071;-63
2022/03/22 06:48:17;;;;;;;37.30;20.27;;;;;;;5.65;100.00;103147.16;5092244;28;20048;-65
2022/03/22 06:50:48;;;;;;;30.83;18.73;;;;;;;5.74;100.00;103146.22;5092366;28;20101;-65
2022/03/22 06:53:18;;;;;;;31.75;19.67;;;;;;;5.88;100.00;103151.34;5092009;28;20127;-65
2022/03/22 06:55:47;;;;;;;31.55;17.83;;;;;;;6.04;100.00;103157.31;5091917;28;20122;-65
2022/03/22 06:58:19;;;;;;;31.45;18.55;;;;;;;6.16;99.43;103164.16;5091714;28;20386;-65
2022/03/22 07:00:47;;;;;;;32.72;18.80;;;;;;;6.32;96.95;103159.66;5092031;28;20043;-65
2022/03/22 07:03:16;;;;;;;31.75;18.88;;;;;;;6.49;95.85;103160.34;5091966;28;20713;-65
2022/03/22 07:05:47;;;;;;;31.88;17.88;;;;;;;6.68;93.75;103160.13;5091858;28;20052;-65
2022/03/22 07:08:17;;;;;;;31.23;17.77;;;;;;;7.01;88.63;103161.47;5091936;28;20059;-65
2022/03/22 07:11:47;;;;;;;30.65;18.60;;;;;;;7.00;89.63;103157.13;5091931;28;20054;-65
2022/03/22 07:13:35;;;;;;;30.60;17.92;;;;;;;7.21;88.32;103161.22;5091642;28;20052;-65
2022/03/22 07:16:03;;;;;;;30.75;18.45;;;;;;;7.35;88.44;103167.97;5091859;28;20438;-65
2022/03/22 07:18:31;;;;;;;31.27;18.58;;;;;;;7.40;88.46;103164.41;5091792;28;20135;-65
2022/03/22 07:21:04;;;;;;;30.02;17.35;;;;;;;7.49;88.32;103163.41;5091738;28;20046;-65
2022/03/22 07:23:35;;;;;;;33.50;18.77;;;;;;;7.65;87.59;103161.41;5091553;28;20044;-57
2022/03/22 07:26:03;;;;;;;31.05;18.05;;;;;;;7.84;86.89;103161.09;5091653;28;20499;-57
2022/03/22 07:28:32;;;;;;;32.35;19.05;;;;;;;7.93;85.02;103166.19;5091503;28;20040;-57
2022/03/22 07:31:00;;;;;;;28.98;17.77;;;;;;;8.05;81.67;103165.97;5091837;28;20559;-57
2022/03/22 07:33:29;;;;;;;31.23;18.42;;;;;;;8.21;85.64;103163.97;5091494;28;20375;-65
2022/03/22 07:35:57;;;;;;;29.13;18.35;;;;;;;8.34;84.48;103167.22;5091973;28;20352;-65
2022/03/22 07:38:26;;;;;;;28.08;17.83;;;;;;;8.59;84.87;103167.66;5091781;28;20067;-65
2022/03/22 07:40:55;;;;;;;28.38;17.10;;;;;;;8.85;82.85;103168.00;5092283;28;20048;-65
2022/03/22 07:43:24;;;;;;;30.17;18.70;;;;;;;8.99;80.02;103178.22;5093433;28;20040;-67
2022/03/22 07:45:52;;;;;;;28.98;19.27;;;;;;;9.23;77.93;103176.81;5095053;28;20470;-65
2022/03/22 07:48:21;;;;;;;32.63;18.55;;;;;;;9.41;76.96;103173.78;5095270;28;20047;-65
2022/03/22 07:53:34;;;;;;;30.13;17.92;;;;;;;9.74;74.97;103170.38;5073984;28;20079;-65
2022/03/22 07:56:04;;;;;;;29.83;17.38;;;;;;;9.92;70.69;103163.81;5095455;28;20044;-65
2022/03/22 07:58:33;;;;;;;28.27;17.27;;;;;;;10.17;68.35;103165.78;5095128;28;20047;-66
2022/03/22 08:01:01;;;;;;;30.13;16.98;;;;;;;10.35;69.74;103167.09;5095342;28;20032;-68
2022/03/22 08:03:30;;;;;;;28.83;17.65;;;;;;;10.56;68.42;103169.13;5094737;28;20061;-66
2022/03/22 08:06:00;;;;;;;28.00;17.25;;;;;;;10.88;65.38;103169.09;5094655;28;20533;-65
2022/03/22 08:08:28;;;;;;;27.60;17.20;;;;;;;10.97;65.31;103171.47;5094722;28;20475;-66
2022/03/22 08:11:02;;;;;;;27.75;16.80;;;;;;;11.05;63.42;103171.25;5094821;28;20050;-65
2022/03/22 08:13:34;;;;;;;29.80;17.50;;;;;;;11.15;64.03;103170.03;5094833;28;20073;-66
2022/03/22 08:16:02;;;;;;;28.60;19.00;;;;;;;11.37;64.18;103178.16;5094920;28;20093;-66
2022/03/22 08:18:31;;;;;;;29.85;17.35;;;;;;;11.58;62.02;103173.97;5094746;28;20036;-66
2022/03/22 08:20:59;;;;;;;25.73;17.50;;;;;;;11.75;62.42;103176.06;5093607;28;20056;-65
2022/03/22 08:23:28;;;;;;;27.58;17.40;;;;;;;11.96;60.53;103174.50;5094646;28;20044;-66
2022/03/22 08:25:56;;;;;;;30.20;17.15;;;;;;;12.07;60.66;103175.94;5094583;28;20384;-57
2022/03/22 08:28:24;;;;;;;30.90;18.48;;;;;;;12.15;60.67;103174.72;5094507;28;20044;-58
2022/03/22 08:30:54;;;;;;;26.13;17.02;;;;;;;12.30;60.59;103173.34;5094548;28;20048;-66
2022/03/22 08:33:22;;;;;;;26.48;16.73;;;;;;;12.52;59.48;103173.41;5094439;28;20032;-66
2022/03/22 08:35:52;;;;;;;24.00;16.25;;;;;;;12.67;58.89;103177.28;5094263;28;20068;-66
2022/03/22 08:38:24;;;;;;;27.90;17.10;;;;;;;12.79;57.09;103178.59;5094415;28;20111;-65
2022/03/22 08:40:53;;;;;;;27.00;18.30;;;;;;;12.91;57.67;103174.66;5094415;28;20132;-66
2022/03/22 08:43:21;;;;;;;26.48;18.52;;;;;;;12.96;57.58;103174.47;5094247;28;20457;-65
2022/03/22 08:45:50;;;;;;;29.02;19.58;;;;;;;13.16;58.11;103178.97;5094139;28;20063;-65
2022/03/22 08:48:20;;;;;;;27.85;18.20;;;;;;;13.33;56.81;103173.03;5094357;28;20098;-65
2022/03/22 08:50:50;;;;;;;27.13;17.60;;;;;;;13.64;55.86;103170.03;5094366;28;20593;-65
2022/03/22 08:53:20;;;;;;;28.13;16.40;;;;;;;13.93;55.32;103170.56;5093834;28;20036;-65
2022/03/22 08:55:52;;;;;;;25.92;16.40;;;;;;;14.13;53.74;103169.72;5094063;28;20399;-66
2022/03/22 08:58:21;;;;;;;25.83;17.23;;;;;;;14.05;50.39;103171.00;5093554;28;20055;-65
2022/03/22 09:00:49;;;;;;;29.50;17.98;;;;;;;14.19;51.57;103164.19;5094006;28;20051;-65
2022/03/22 09:03:22;;;;;;;26.83;17.08;;;;;;;14.43;51.14;103165.81;5093886;28;20055;-66
2022/03/22 09:06:08;;;;;;;25.73;17.23;;;;;;;14.54;50.32;103172.31;5093858;28;20056;-66
2022/03/22 09:08:37;;;;;;;27.45;18.05;;;;;;;14.82;49.29;103175.53;5093779;28;20072;-65
2022/03/22 09:11:07;;;;;;;24.92;16.98;;;;;;;14.95;48.36;103170.53;5093648;28;20479;-66
2022/03/22 09:13:41;;;;;;;26.50;17.25;;;;;;;15.13;48.78;103163.50;5093376;28;20430;-66
2022/03/22 09:16:14;;;;;;;31.70;17.92;;;;;;;15.27;47.50;103160.19;5093759;28;20075;-66
2022/03/22 09:18:46;;;;;;;28.02;17.55;;;;;;;15.42;47.08;103158.56;5093512;28;20127;-67
2022/03/22 09:21:15;;;;;;;24.75;16.42;;;;;;;15.75;48.91;103164.00;5093333;28;20109;-66
2022/03/22 09:23:44;;;;;;;26.10;16.88;;;;;;;16.01;47.55;103157.38;5093371;28;20036;-66
2022/03/22 09:26:12;;;;;;;22.73;15.40;;;;;;;16.33;47.11;103156.63;5093309;28;20044;-66
2022/03/22 09:28:41;;;;;;;26.25;17.10;;;;;;;16.45;45.58;103155.13;5093184;28;20047;-66
2022/03/22 09:31:09;;;;;;;25.77;16.85;;;;;;;16.56;44.36;103158.94;5092860;28;20039;-66
2022/03/22 09:33:43;;;;;;;25.52;17.40;;;;;;;16.55;44.76;103153.69;5092634;28;20097;-67
2022/03/22 09:36:13;;;;;;;26.92;16.95;;;;;;;16.73;44.67;103159.81;5093186;28;20109;-66
2022/03/22 09:38:42;;;;;;;24.20;16.55;;;;;;;16.92;44.08;103157.03;5092874;28;20131;-66
2022/03/22 09:41:13;;;;;;;24.50;16.95;;;;;;;17.14;44.22;103158.44;5092881;28;20508;-66
2022/03/22 09:43:47;;;;;;;25.00;17.15;;;;;;;17.26;42.55;103159.56;5092849;28;20048;-68
2022/03/22 09:46:19;;;;;;;26.58;17.17;;;;;;;17.42;42.93;103156.88;5093076;28;20048;-67
2022/03/22 09:48:49;;;;;;;28.77;16.88;;;;;;;17.56;42.73;103154.25;5092827;28;20062;-59
2022/03/22 09:54:12;;;;;;;24.92;16.45;;;;;;;17.95;42.19;103150.22;5092494;28;20064;-59
2022/03/22 09:56:41;;;;;;;26.77;17.67;;;;;;;18.28;41.64;103146.44;5092661;28;20043;-67
2022/03/22 09:59:11;;;;;;;25.50;17.15;;;;;;;18.23;41.02;103149.41;5092579;28;20048;-59
2022/03/22 10:01:40;;;;;;;24.67;17.33;;;;;;;18.22;40.50;103145.03;5092334;28;20600;-67
2022/03/22 10:04:12;;;;;;;25.85;17.63;;;;;;;18.57;39.91;103138.47;5092342;28;20101;-67
2022/03/22 10:06:54;;;;;;;27.63;18.70;;;;;;;18.63;39.07;103140.72;5091768;28;20063;-67
2022/03/22 10:09:29;;;;;;;24.42;16.33;;;;;;;18.87;39.70;103137.44;5092369;28;20105;-66
2022/03/22 10:11:58;;;;;;;26.08;17.77;;;;;;;19.04;39.25;103128.41;5092243;28;20086;-66
2022/03/22 10:14:34;;;;;;;25.40;16.88;;;;;;;19.05;39.12;103130.13;5092046;28;20044;-67
2022/03/22 10:17:11;;;;;;;25.05;16.83;;;;;;;19.42;38.15;103127.66;5092278;28;20059;-67
2022/03/22 10:19:45;;;;;;;26.20;16.27;;;;;;;19.65;37.33;103128.78;5092216;28;20433;-67
2022/03/22 10:22:15;;;;;;;29.40;16.83;;;;;;;19.66;36.86;103126.97;5092211;28;20052;-66
2022/03/22 10:24:45;;;;;;;27.83;18.33;;;;;;;19.90;37.08;103125.31;5091700;28;20123;-58
2022/03/22 10:27:25;;;;;;;24.50;16.45;;;;;;;20.04;36.97;103126.16;5091524;28;20491;-58
2022/03/22 10:30:17;;;;;;;26.10;17.05;;;;;;;20.46;35.38;103123.25;5091947;28;20062;-58
2022/03/22 10:32:51;;;;;;;25.00;16.17;;;;;;;20.08;35.41;103120.50;5092257;28;20058;-59
2022/03/22 10:35:22;;;;;;;26.30;17.13;;;;;;;20.33;36.22;103118.78;5092187;28;20040;-58
2022/03/22 10:37:53;;;;;;;24.48;16.25;;;;;;;20.82;36.58;103116.22;5092396;28;20055;-58
2022/03/22 10:40:30;;;;;;;23.42;15.38;;;;;;;20.80;34.74;103120.84;5092167;28;20036;-58
2022/03/22 10:43:00;;;;;;;27.77;17.92;;;;;;;20.50;34.82;103119.38;5091920;28;20085;-57
2022/03/22 10:45:29;;;;;;;29.75;17.50;;;;;;;20.73;33.41;103121.28;5091535;28;20743;-58
2022/03/22 10:47:58;;;;;;;23.35;16.48;;;;;;;20.92;33.99;103110.06;5091749;28;20494;-58
2022/03/22 10:50:27;;;;;;;26.40;16.63;;;;;;;20.74;33.49;103112.28;5091891;28;20429;-57
2022/03/22 10:52:59;;;;;;;26.25;17.70;;;;;;;20.96;34.07;103104.53;5092204;28;20563;-58
2022/03/22 10:55:28;;;;;;;27.73;16.88;;;;;;;21.18;33.92;103109.97;5091772;28;20379;-58
2022/03/22 10:57:58;;;;;;;25.80;16.23;;;;;;;21.55;33.37;103111.69;5091728;28;20059;-57
2022/03/22 11:00:28;;;;;;;23.48;15.40;;;;;;;21.92;32.33;103101.69;5091880;28;20044;-57
2022/03/22 11:02:58;;;;;;;23.63;16.35;;;;;;;22.10;32.67;103104.72;5091854;28;20102;-57
2022/03/22 11:05:27;;;;;;;27.60;16.80;;;;;;;21.96;31.38;103102.28;5091751;28;20471;-57
2022/03/22 11:07:57;;;;;;;24.00;15.50;;;;;;;21.85;30.90;103102.28;5091844;28;20131;-57
2022/03/22 11:10:29;;;;;;;25.38;16.52;;;;;;;22.10;30.57;103106.53;5091800;28;20507;-57
2022/03/22 11:12:58;;;;;;;24.20;17.30;;;;;;;22.05;30.88;103106.06;5090610;28;20060;-57
2022/03/22 11:15:28;;;;;;;27.67;16.98;;;;;;;22.11;30.72;103103.75;5091923;28;20051;-65
2022/03/22 11:17:58;;;;;;;26.00;17.70;;;;;;;22.17;30.96;103106.91;5094929;28;20487;-65
2022/03/22 11:20:27;;;;;;;27.80;16.98;;;;;;;22.27;31.05;103102.53;5095735;28;20039;-65
2022/03/22 11:23:00;;;;;;;25.92;15.93;;;;;;;22.65;30.10;103098.59;5095718;28;20518;-65
2022/03/22 11:25:30;;;;;;;24.90;16.50;;;;;;;22.73;30.81;103093.47;5095569;28;20058;-65
2022/03/22 11:28:03;;;;;;;24.48;16.40;;;;;;;22.93;30.56;103094.50;5095614;28;20044;-65
2022/03/22 11:30:36;;;;;;;24.80;15.88;;;;;;;23.45;29.99;103091.97;5095685;28;20052;-66
2022/03/22 11:35:53;;;;;;;22.27;16.55;;;;;;;23.27;30.60;103082.78;5095143;28;20048;-65
2022/03/22 11:38:43;;;;;;;24.90;17.27;;;;;;;23.59;29.57;103084.56;5095434;28;20048;-65
2022/03/22 11:44:17;;;;;;;24.70;17.05;;;;;;;23.90;29.06;103081.91;5095409;28;20398;-65
2022/03/22 11:46:46;;;;;;;24.20;16.77;;;;;;;23.75;29.29;103081.38;5095252;28;20055;-65
2022/03/22 11:49:21;;;;;;;23.67;15.98;;;;;;;23.98;28.82;103079.41;5095042;28;20032;-66
2022/03/22 11:51:55;;;;;;;28.50;16.58;;;;;;;23.96;29.16;103081.41;5095230;28;20048;-65
2022/03/22 11:54:27;;;;;;;27.58;16.95;;;;;;;24.32;28.63;103073.72;5094842;28;20044;-66
2022/03/22 11:56:59;;;;;;;25.15;16.67;;;;;;;24.03;28.33;103077.19;5094702;28;20402;-65
2022/03/22 11:59:39;;;;;;;25.05;16.55;;;;;;;24.13;28.44;103072.72;5094903;28;20499;-65
2022/03/22 12:02:15;;;;;;;24.60;16.83;;;;;;;24.31;28.10;103072.06;5094638;28;20084;-66
2022/03/22 12:04:48;;;;;;;25.50;17.23;;;;;;;24.47;28.35;103074.19;5094707;28;20546;-65